createdAt,value
2022-10-11T00:00:08.852Z,65.82
2022-10-11T00:02:35.835Z,48.25
2022-10-11T00:05:02.818Z,58.17
2022-10-11T00:07:30.151Z,69.88
2022-10-11T00:09:57.171Z,56.17
2022-10-11T00:12:24.143Z,56.67
2022-10-11T00:14:51.275Z,53.10
2022-10-11T00:17:18.272Z,61.50
2022-10-11T00:19:45.173Z,63.60
2022-10-11T00:22:12.259Z,68.75
2022-10-11T00:24:39.180Z,58.55
2022-10-11T00:27:06.198Z,67.05
2022-10-11T00:29:33.123Z,73.78
2022-10-11T00:32:00.572Z,62.88
2022-10-11T00:34:27.565Z,75.53
2022-10-11T00:36:54.702Z,68.00
2022-10-11T00:39:22.475Z,53.22
2022-10-11T00:41:49.860Z,54.53
2022-10-11T00:44:20.161Z,55.65
2022-10-11T00:47:05.410Z,64.50
2022-10-11T00:49:44.060Z,55.03
2022-10-11T00:52:23.336Z,62.42
2022-10-11T00:54:51.093Z,59.08
2022-10-11T00:57:23.928Z,61.03
2022-10-11T00:59:54.091Z,50.63
2022-10-11T01:02:23.317Z,53.15
2022-10-11T01:05:01.185Z,55.92
2022-10-11T01:07:39.279Z,52.88
2022-10-11T01:10:06.543Z,51.00
2022-10-11T01:12:33.928Z,64.00
2022-10-11T01:15:19.143Z,60.58
2022-10-11T01:18:30.456Z,55.95
2022-10-11T01:21:25.148Z,57.38
2022-10-11T01:23:55.116Z,57.25
2022-10-11T01:26:59.515Z,53.65
2022-10-11T01:29:48.065Z,51.20
2022-10-11T01:32:17.492Z,58.35
2022-10-11T01:34:57.697Z,66.38
2022-10-11T01:37:31.791Z,61.03
2022-10-11T01:40:40.250Z,55.38
2022-10-11T01:43:07.436Z,59.05
2022-10-11T01:45:35.433Z,65.80
2022-10-11T01:48:14.231Z,92.43
2022-10-11T01:50:57.029Z,70.45
2022-10-11T01:54:08.171Z,67.80
2022-10-11T01:57:28.936Z,71.70
2022-10-11T01:59:56.024Z,65.93
2022-10-11T02:02:32.348Z,81.07
2022-10-11T02:05:47.430Z,72.00
2022-10-11T02:30:17.850Z,63.88
2022-10-11T02:32:47.248Z,62.50
2022-10-11T02:35:15.323Z,67.55
2022-10-11T02:38:05.861Z,60.15
2022-10-11T02:40:37.672Z,58.05
2022-10-11T02:43:19.834Z,53.45
2022-10-11T02:45:52.661Z,49.85
2022-10-11T02:48:20.320Z,45.22
2022-10-11T02:50:47.614Z,47.90
2022-10-11T02:53:14.718Z,44.78
2022-10-11T02:55:41.963Z,49.92
2022-10-11T02:58:09.414Z,45.90
2022-10-11T03:00:36.269Z,44.25
2022-10-11T03:03:03.743Z,55.85
2022-10-11T03:05:30.702Z,47.25
2022-10-11T03:07:58.001Z,48.67
2022-10-11T03:10:24.877Z,47.60
2022-10-11T03:12:51.793Z,48.70
2022-10-11T03:15:18.777Z,44.42
2022-10-11T03:17:45.670Z,50.22
2022-10-11T03:20:12.632Z,48.72
2022-10-11T03:22:39.518Z,51.42
2022-10-11T03:25:06.688Z,45.95
2022-10-11T03:27:34.140Z,47.05
2022-10-11T03:30:01.696Z,57.03
2022-10-11T03:32:29.530Z,50.70
2022-10-11T03:34:56.610Z,48.55
2022-10-11T03:37:23.708Z,53.10
2022-10-11T03:39:50.782Z,52.03
2022-10-11T03:42:17.688Z,44.50
2022-10-11T03:44:44.619Z,49.72
2022-10-11T03:47:12.862Z,51.70
2022-10-11T03:49:43.390Z,48.85
2022-10-11T03:52:11.691Z,51.05
2022-10-11T03:54:38.689Z,54.75
2022-10-11T03:57:05.685Z,50.45
2022-10-11T03:59:32.613Z,45.63
2022-10-11T04:01:59.581Z,50.10
2022-10-11T04:04:26.730Z,42.92
2022-10-11T04:06:53.680Z,52.28
2022-10-11T04:09:20.769Z,48.65
2022-10-11T04:11:47.982Z,50.78
2022-10-11T04:14:15.201Z,48.63
2022-10-11T04:16:42.364Z,46.10
2022-10-11T04:19:09.533Z,47.72
2022-10-11T04:21:36.391Z,49.95
2022-10-11T04:24:04.392Z,54.22
2022-10-11T04:26:31.470Z,55.20
2022-10-11T04:29:00.210Z,56.05
2022-10-11T04:31:27.304Z,51.90
2022-10-11T04:33:54.499Z,54.45
2022-10-11T04:36:21.365Z,47.88
2022-10-11T04:38:48.760Z,48.53
2022-10-11T04:41:16.660Z,47.42
2022-10-11T04:43:43.558Z,44.75
2022-10-11T04:46:11.686Z,46.00
2022-10-11T04:48:38.798Z,46.13
2022-10-11T04:51:06.070Z,44.92
2022-10-11T04:53:32.974Z,51.08
2022-10-11T04:56:02.685Z,43.83
2022-10-11T04:58:31.463Z,52.17
2022-10-11T05:00:58.807Z,46.50
2022-10-11T05:03:26.146Z,47.60
2022-10-11T05:05:54.236Z,52.92
2022-10-11T05:08:23.371Z,46.70
2022-10-11T05:11:00.717Z,46.08
2022-10-11T05:13:29.163Z,46.13
2022-10-11T05:15:56.309Z,47.10
2022-10-11T05:18:24.076Z,49.67
2022-10-11T05:21:19.263Z,51.35
2022-10-11T05:24:20.444Z,42.95
2022-10-11T05:26:48.138Z,46.70
2022-10-11T05:29:15.044Z,45.25
2022-10-11T05:31:42.391Z,46.90
2022-10-11T05:34:09.250Z,44.33
2022-10-11T05:36:36.595Z,47.85
2022-10-11T05:39:04.058Z,42.42
2022-10-11T05:41:31.575Z,41.60
2022-10-11T05:43:58.482Z,42.25
2022-10-11T05:46:25.659Z,49.90
2022-10-11T05:48:52.498Z,46.90
2022-10-11T05:51:19.426Z,40.67
2022-10-11T05:53:46.392Z,45.35
2022-10-11T05:56:25.490Z,43.10
2022-10-11T05:58:53.290Z,48.20
2022-10-11T06:01:25.731Z,45.13
2022-10-11T06:03:53.173Z,47.38
2022-10-11T06:06:20.592Z,51.28
2022-10-11T06:08:48.997Z,42.13
2022-10-11T06:11:21.936Z,44.47
2022-10-11T06:13:49.483Z,48.88
2022-10-11T06:16:16.457Z,45.33
2022-10-11T06:18:43.610Z,42.22
2022-10-11T06:21:10.912Z,39.80
2022-10-11T06:23:38.429Z,38.88
2022-10-11T06:26:08.469Z,40.90
2022-10-11T06:28:36.864Z,39.60
2022-10-11T06:31:05.717Z,41.53
2022-10-11T06:33:33.819Z,40.33
2022-10-11T06:36:03.834Z,37.28
2022-10-11T06:38:31.250Z,37.92
2022-10-11T06:40:58.175Z,35.63
2022-10-11T06:43:25.723Z,41.72
2022-10-11T06:45:53.010Z,38.53
2022-10-11T06:48:19.946Z,40.03
2022-10-11T06:50:59.501Z,42.30
2022-10-11T06:53:27.984Z,39.42
2022-10-11T06:56:01.554Z,41.67
2022-10-11T06:58:29.317Z,39.75
2022-10-11T07:01:00.489Z,37.40
2022-10-11T07:03:28.650Z,45.17
2022-10-11T07:06:13.071Z,40.85
2022-10-11T07:08:41.602Z,37.42
2022-10-11T07:11:13.645Z,37.40
2022-10-11T07:13:42.143Z,38.55
2022-10-11T07:16:11.310Z,40.15
2022-10-11T07:18:39.640Z,42.67
2022-10-11T07:21:09.338Z,34.08
2022-10-11T07:23:38.085Z,34.65
2022-10-11T07:26:05.881Z,35.05
2022-10-11T07:28:35.970Z,38.60
2022-10-11T07:31:12.028Z,38.58
2022-10-11T07:33:39.326Z,36.88
2022-10-11T07:36:07.116Z,34.72
2022-10-11T07:38:34.788Z,33.63
2022-10-11T07:41:05.773Z,36.70
2022-10-11T07:43:32.849Z,36.80
2022-10-11T07:46:04.876Z,38.28
2022-10-11T07:48:33.828Z,34.33
2022-10-11T07:51:12.387Z,34.28
2022-10-11T07:53:43.716Z,32.72
2022-10-11T07:56:13.070Z,34.92
2022-10-11T07:58:41.349Z,33.17
2022-10-11T08:01:09.778Z,31.15
2022-10-11T08:03:37.631Z,37.00
2022-10-11T08:06:08.465Z,34.67
2022-10-11T08:08:36.891Z,32.75
2022-10-11T08:11:04.605Z,37.15
2022-10-11T08:13:32.145Z,30.38
2022-10-11T08:15:59.394Z,48.65
2022-10-11T08:18:26.256Z,41.75
2022-10-11T08:20:53.701Z,49.55
2022-10-11T08:23:20.568Z,39.58
2022-10-11T08:25:48.296Z,43.05
2022-10-11T08:28:18.138Z,39.83
2022-10-11T08:30:50.104Z,35.38
2022-10-11T08:33:18.984Z,36.15
2022-10-11T08:35:45.859Z,36.00
2022-10-11T08:38:13.058Z,36.08
2022-10-11T08:40:47.749Z,33.40
2022-10-11T08:43:28.339Z,31.15
2022-10-11T08:45:58.997Z,32.38
2022-10-11T08:48:34.560Z,37.53
2022-10-11T08:51:06.743Z,32.72
2022-10-11T08:53:49.270Z,32.15
2022-10-11T08:56:18.023Z,37.38
2022-10-11T08:58:56.005Z,25.92
2022-10-11T09:01:27.039Z,28.92
2022-10-11T09:03:55.455Z,27.08
2022-10-11T09:07:04.736Z,27.00
2022-10-11T09:09:49.055Z,32.10
2022-10-11T09:12:16.125Z,26.15
2022-10-11T09:15:00.828Z,25.35
2022-10-11T09:17:55.821Z,30.30
2022-10-11T09:20:44.898Z,25.23
2022-10-11T09:23:44.172Z,25.10
2022-10-11T09:26:51.862Z,25.52
2022-10-11T09:29:33.439Z,24.23
2022-10-11T09:32:01.113Z,38.58
2022-10-11T09:34:34.065Z,31.83
2022-10-11T09:37:07.544Z,31.75
2022-10-11T09:39:42.223Z,26.60
2022-10-11T09:42:11.012Z,92.28
2022-10-11T09:44:40.063Z,92.97
2022-10-11T09:47:12.565Z,98.50
2022-10-11T09:49:46.522Z,36.50
2022-10-11T09:52:20.044Z,35.15
2022-10-11T09:54:50.368Z,48.17
2022-10-11T09:57:27.030Z,34.40
2022-10-11T10:00:21.538Z,24.80
2022-10-11T10:02:53.162Z,24.75
2022-10-11T10:05:39.683Z,37.05
2022-10-11T10:08:22.692Z,26.40
2022-10-11T10:11:06.763Z,32.20
2022-10-11T10:13:42.531Z,31.30
2022-10-11T10:16:24.791Z,29.38
2022-10-11T10:18:57.512Z,35.92
2022-10-11T10:21:46.703Z,39.15
2022-10-11T10:24:27.955Z,31.48
2022-10-11T10:27:21.207Z,36.92
2022-10-11T10:30:08.524Z,37.30
2022-10-11T10:35:30.306Z,31.48
2022-10-11T10:38:22.797Z,32.08
2022-10-11T10:40:58.997Z,27.88
2022-10-11T10:43:29.259Z,38.60
2022-10-11T10:46:21.852Z,31.65
2022-10-11T10:51:57.949Z,27.85
2022-10-11T10:54:59.064Z,28.42
2022-10-11T10:57:36.107Z,29.48
2022-10-11T11:02:55.525Z,24.88
2022-10-11T11:06:01.474Z,29.30
2022-10-11T11:08:47.679Z,25.92
2022-10-11T11:11:20.858Z,26.42
2022-10-11T11:14:16.634Z,26.50
2022-10-11T11:17:13.319Z,27.10
2022-10-11T11:20:02.243Z,26.45
2022-10-11T11:22:40.107Z,26.42
2022-10-11T11:25:48.533Z,24.00
2022-10-11T11:30:54.640Z,21.10
2022-10-11T11:33:36.932Z,26.45
2022-10-11T11:36:12.464Z,27.83
2022-10-11T11:38:50.809Z,29.08
2022-10-11T11:41:34.584Z,29.02
2022-10-11T11:44:04.006Z,28.35
2022-10-11T11:46:47.390Z,28.48
2022-10-11T11:49:24.640Z,26.92
2022-10-11T11:51:52.393Z,26.48
2022-10-11T11:54:45.271Z,35.55
2022-10-11T11:57:26.750Z,26.60
2022-10-11T11:59:57.653Z,29.55
2022-10-11T12:02:45.294Z,27.73
2022-10-11T12:05:15.425Z,26.77
2022-10-11T12:08:00.289Z,28.00
2022-10-11T12:10:36.060Z,31.42
2022-10-11T12:13:22.911Z,25.73
2022-10-11T12:16:00.227Z,32.15
2022-10-11T12:18:29.393Z,28.23
2022-10-11T12:21:15.374Z,45.08
2022-10-11T12:23:46.240Z,27.35
2022-10-11T12:26:28.744Z,32.00
2022-10-11T12:29:24.657Z,31.38
2022-10-11T12:32:01.427Z,32.35
2022-10-11T12:34:38.178Z,30.23
2022-10-11T12:37:20.571Z,35.75
2022-10-11T12:39:52.977Z,28.65
2022-10-11T12:42:32.486Z,32.15
2022-10-11T12:45:14.771Z,28.88
2022-10-11T12:48:03.804Z,28.73
2022-10-11T12:50:37.330Z,34.17
2022-10-11T12:54:14.308Z,24.92
2022-10-11T12:56:44.480Z,25.92
2022-10-11T12:59:23.689Z,24.67
2022-10-11T13:01:59.310Z,26.20
2022-10-11T13:04:30.363Z,22.58
2022-10-11T13:07:06.947Z,25.67
2022-10-11T13:12:02.927Z,30.35
2022-10-11T13:14:36.858Z,26.25
2022-10-11T13:17:06.734Z,36.08
2022-10-11T13:19:37.270Z,34.05
2022-10-11T13:22:15.451Z,28.33
2022-10-11T13:24:42.763Z,27.85
2022-10-11T13:27:23.367Z,30.10
2022-10-11T13:29:53.079Z,31.77
2022-10-11T13:32:26.934Z,32.50
2022-10-11T13:35:01.660Z,34.45
2022-10-11T13:37:30.973Z,38.25
2022-10-11T13:39:58.411Z,38.92
2022-10-11T13:42:32.501Z,33.47
2022-10-11T13:45:00.864Z,32.17
2022-10-11T13:47:30.385Z,35.40
2022-10-11T13:50:16.723Z,33.60
2022-10-11T13:52:58.027Z,33.13
2022-10-11T13:55:34.463Z,36.90
2022-10-11T13:58:09.076Z,37.53
2022-10-11T14:00:40.529Z,39.78
2022-10-11T14:03:19.780Z,33.72
2022-10-11T14:06:00.628Z,39.47
2022-10-11T14:08:36.617Z,40.00
2022-10-11T14:11:06.506Z,30.90
2022-10-11T14:13:37.170Z,38.38
2022-10-11T14:16:13.882Z,35.25
2022-10-11T14:18:43.750Z,26.92
2022-10-11T14:21:20.044Z,21.77
2022-10-11T14:26:19.069Z,23.45
2022-10-11T14:28:52.423Z,25.65
2022-10-11T14:31:19.715Z,27.55
2022-10-11T14:33:46.615Z,18.73
2022-10-11T14:36:14.395Z,41.53
2022-10-11T14:38:41.291Z,20.30
2022-10-11T14:41:08.391Z,30.35
2022-10-11T14:43:35.638Z,30.67
2022-10-11T14:46:03.173Z,34.90
2022-10-11T14:48:53.745Z,39.72
2022-10-11T14:51:25.574Z,41.97
2022-10-11T14:53:52.773Z,45.80
2022-10-11T14:56:21.723Z,46.08
2022-10-11T14:58:49.389Z,43.72
2022-10-11T15:01:17.346Z,37.83
2022-10-11T15:03:44.987Z,34.28
2022-10-11T15:06:21.354Z,38.45
2022-10-11T15:08:49.055Z,31.65
2022-10-11T15:11:18.363Z,37.45
2022-10-11T15:13:46.703Z,36.40
2022-10-11T15:16:15.933Z,35.60
2022-10-11T15:18:44.139Z,41.33
2022-10-11T15:21:14.908Z,35.65
2022-10-11T15:23:42.220Z,33.40
2022-10-11T15:26:14.076Z,33.45
2022-10-11T15:28:42.052Z,37.28
2022-10-11T15:31:10.830Z,51.15
2022-10-11T15:33:39.569Z,37.13
2022-10-11T15:36:09.591Z,40.45
2022-10-11T15:38:38.843Z,31.45
2022-10-11T15:41:05.736Z,34.78
2022-10-11T15:43:34.134Z,44.08
2022-10-11T15:46:02.477Z,45.35
2022-10-11T15:48:29.903Z,60.65
2022-10-11T15:50:56.954Z,67.18
2022-10-11T15:53:31.115Z,64.00
2022-10-11T15:56:02.356Z,59.28
2022-10-11T15:58:32.547Z,62.05
2022-10-11T16:01:02.259Z,48.30
2022-10-11T16:03:30.555Z,59.22
2022-10-11T16:06:03.866Z,63.13
2022-10-11T16:08:33.546Z,59.45
2022-10-11T16:11:00.864Z,65.32
2022-10-11T16:13:28.461Z,66.53
2022-10-11T16:15:56.154Z,56.33
2022-10-11T16:18:23.845Z,58.38
2022-10-11T16:20:52.510Z,59.42
2022-10-11T16:23:22.253Z,59.00
2022-10-11T16:26:00.601Z,64.03
2022-10-11T16:28:28.615Z,57.03
2022-10-11T16:30:56.025Z,56.92
2022-10-11T16:33:23.232Z,54.28
2022-10-11T16:35:50.306Z,63.05
2022-10-11T16:38:17.684Z,56.50
2022-10-11T16:40:44.751Z,54.92
2022-10-11T16:43:11.747Z,60.53
2022-10-11T16:45:38.816Z,53.20
2022-10-11T16:48:06.055Z,50.85
2022-10-11T16:50:39.110Z,49.60
2022-10-11T16:53:06.794Z,45.53
2022-10-11T16:55:33.761Z,51.47
2022-10-11T16:58:01.151Z,55.47
2022-10-11T17:00:28.068Z,56.30
2022-10-11T17:02:55.358Z,50.13
2022-10-11T17:05:22.433Z,56.42
2022-10-11T17:07:49.587Z,49.20
2022-10-11T17:10:16.541Z,49.38
2022-10-11T17:12:47.817Z,50.95
2022-10-11T17:15:17.356Z,72.15
2022-10-11T17:17:44.220Z,48.35
2022-10-11T17:20:11.808Z,42.25
2022-10-11T17:22:38.663Z,43.78
2022-10-11T17:25:07.086Z,41.33
2022-10-11T17:27:34.349Z,47.00
2022-10-11T17:30:01.472Z,45.22
2022-10-11T17:32:28.332Z,49.42
2022-10-11T17:34:57.772Z,48.85
2022-10-11T17:37:24.721Z,49.35
2022-10-11T17:39:51.916Z,45.53
2022-10-11T17:42:19.186Z,42.03
2022-10-11T17:44:46.376Z,43.17
2022-10-11T17:47:14.416Z,54.80
2022-10-11T17:49:41.797Z,43.00
2022-10-11T17:52:09.086Z,49.97
2022-10-11T17:54:36.892Z,40.33
2022-10-11T17:57:04.063Z,42.10
2022-10-11T17:59:32.399Z,53.08
2022-10-11T18:01:59.358Z,50.17
2022-10-11T18:04:30.008Z,48.35
2022-10-11T18:06:57.511Z,44.88
2022-10-11T18:09:24.836Z,47.63
2022-10-11T18:11:52.622Z,51.55
2022-10-11T18:14:20.082Z,40.80
2022-10-11T18:16:47.359Z,40.70
2022-10-11T18:19:15.154Z,46.10
2022-10-11T18:21:42.426Z,48.83
2022-10-11T18:24:15.152Z,137.25
2022-10-11T18:26:46.518Z,68.90
2022-10-11T18:29:15.795Z,66.05
2022-10-11T18:31:43.047Z,39.13
2022-10-11T18:34:13.517Z,35.55
2022-10-11T18:36:40.813Z,38.35
2022-10-11T18:39:11.071Z,46.97
2022-10-11T18:41:40.419Z,40.95
2022-10-11T18:44:09.150Z,43.80
2022-10-11T18:46:36.854Z,44.15
2022-10-11T18:49:04.314Z,40.53
2022-10-11T18:51:39.974Z,41.78
2022-10-11T18:54:08.569Z,46.85
2022-10-11T18:56:37.108Z,43.10
2022-10-11T18:59:06.048Z,41.83
2022-10-11T19:01:38.722Z,41.63
2022-10-11T19:04:08.548Z,42.03
2022-10-11T19:06:43.145Z,44.83
2022-10-11T19:09:22.775Z,47.30
2022-10-11T19:11:52.439Z,48.03
2022-10-11T19:14:22.178Z,52.22
2022-10-11T19:16:51.821Z,46.55
2022-10-11T19:19:20.820Z,52.72
2022-10-11T19:21:49.497Z,55.20
2022-10-11T19:24:18.225Z,54.55
2022-10-11T19:26:45.438Z,53.78
2022-10-11T19:29:15.815Z,57.38
2022-10-11T19:31:45.550Z,56.55
2022-10-11T19:34:12.749Z,52.60
2022-10-11T19:36:42.933Z,50.72
2022-10-11T19:39:15.111Z,51.50
2022-10-11T19:41:44.672Z,49.80
2022-10-11T19:44:15.191Z,48.13
2022-10-11T19:47:02.805Z,42.97
2022-10-11T19:49:29.543Z,45.17
2022-10-11T19:51:56.552Z,47.03
2022-10-11T19:54:24.264Z,51.80
2022-10-11T19:56:51.559Z,45.35
2022-10-11T19:59:18.784Z,45.13
2022-10-11T20:01:51.291Z,42.88
2022-10-11T20:04:47.028Z,45.05
2022-10-11T20:07:06.451Z,43.75
2022-10-11T20:09:33.381Z,53.85
2022-10-11T20:12:00.355Z,50.03
2022-10-11T20:14:27.356Z,47.28
2022-10-11T20:16:54.419Z,46.10
2022-10-11T20:19:25.032Z,42.55
2022-10-11T20:21:55.051Z,43.67
2022-10-11T20:24:22.178Z,40.05
2022-10-11T20:26:49.079Z,41.20
2022-10-11T20:29:16.054Z,45.92
2022-10-11T20:31:43.139Z,47.83
2022-10-11T20:34:11.007Z,40.60
2022-10-11T20:36:38.310Z,55.40
2022-10-11T20:39:08.311Z,56.38
2022-10-11T20:41:40.136Z,43.50
2022-10-11T20:44:09.161Z,44.35
2022-10-11T20:46:38.820Z,60.03
2022-10-11T20:49:11.687Z,37.88
2022-10-11T20:51:41.652Z,38.10
2022-10-11T20:54:08.992Z,36.63
2022-10-11T20:56:36.480Z,41.05
2022-10-11T20:59:05.145Z,39.97
2022-10-11T21:01:38.234Z,36.13
2022-10-11T21:04:07.166Z,42.38
2022-10-11T21:06:34.745Z,39.97
2022-10-11T21:09:02.382Z,44.72
2022-10-11T21:11:32.040Z,37.28
2022-10-11T21:14:02.221Z,35.55
2022-10-11T21:16:30.070Z,36.25
2022-10-11T21:18:58.703Z,35.67
2022-10-11T21:21:27.309Z,38.53
2022-10-11T21:23:59.346Z,36.45
2022-10-11T21:26:27.866Z,39.97
2022-10-11T21:28:56.795Z,43.55
2022-10-11T21:31:24.021Z,41.50
2022-10-11T21:33:51.499Z,45.97
2022-10-11T21:36:21.116Z,42.63
2022-10-11T21:38:49.733Z,39.25
2022-10-11T21:41:22.267Z,43.25
2022-10-11T21:43:50.046Z,34.47
2022-10-11T21:46:42.019Z,38.05
2022-10-11T21:49:14.715Z,40.10
2022-10-11T21:51:42.581Z,39.03
2022-10-11T21:54:12.327Z,33.20
2022-10-11T21:56:40.674Z,31.85
2022-10-11T21:59:12.228Z,35.65
2022-10-11T22:01:42.374Z,31.00
2022-10-11T22:04:11.597Z,28.85
2022-10-11T22:06:39.633Z,26.52
2022-10-11T22:09:09.820Z,32.50
2022-10-11T22:11:38.663Z,31.38
2022-10-11T22:14:06.899Z,36.35
2022-10-11T22:18:19.743Z,30.00
2022-10-11T22:20:47.130Z,32.53
2022-10-11T22:23:57.219Z,32.83
2022-10-11T22:26:27.406Z,35.75
2022-10-11T22:28:54.426Z,32.80
2022-10-11T22:31:22.822Z,30.23
2022-10-11T22:33:54.856Z,42.25
2022-10-11T22:36:24.271Z,35.47
2022-10-11T22:38:54.694Z,44.67
2022-10-11T22:41:22.061Z,37.40
2022-10-11T22:43:49.242Z,33.85
2022-10-11T22:46:16.690Z,35.50
2022-10-11T22:48:43.853Z,32.05
2022-10-11T22:51:11.051Z,36.72
2022-10-11T22:53:38.728Z,37.13
2022-10-11T22:56:07.418Z,35.83
2022-10-11T22:58:34.425Z,40.47
2022-10-11T23:01:13.988Z,35.47
2022-10-11T23:03:41.287Z,40.72
2022-10-11T23:06:08.794Z,38.95
2022-10-11T23:08:36.125Z,37.20
2022-10-11T23:11:05.305Z,34.38
2022-10-11T23:13:32.809Z,36.83
2022-10-11T23:16:00.426Z,38.08
2022-10-11T23:18:27.415Z,37.90
2022-10-11T23:20:54.490Z,36.90
2022-10-11T23:23:21.628Z,38.95
2022-10-11T23:25:48.824Z,50.85
2022-10-11T23:28:15.815Z,44.97
2022-10-11T23:30:43.348Z,43.65
2022-10-11T23:33:10.194Z,49.08
2022-10-11T23:35:37.382Z,46.25
2022-10-11T23:38:04.619Z,41.75
2022-10-11T23:40:31.765Z,42.00
2022-10-11T23:42:58.960Z,41.60
2022-10-11T23:45:26.286Z,39.63
2022-10-11T23:47:53.431Z,38.30
2022-10-11T23:50:20.330Z,32.85
2022-10-11T23:52:47.967Z,41.78
2022-10-11T23:55:15.020Z,41.00
2022-10-11T23:57:42.356Z,36.25
